Accueil
METAR-TAF:

METAR-TAF

Aéroports :

Aéroport des Asturies

Avilés, Espagne

latitude: 43-33N, longitude: 006-02W, altitude: 127 m

Observation

Le bulletin a été fait il y a 15 minutes, à 22:00 UTC
Vent 2 kt de direction variable
Température 13°C
Humidité 72%
Pression 1024 hPa
Visibilité 10 km ou plus

METAR: LEAS 192200Z AUTO VRB02KT 9999 NCD 13/08 Q1024

Heure: 00:15 (22:15 UTC)

Prévision

Le bulletin a été fait il y a 2 heures et 15 minutes, à 20:00 UTC
Prévision valable du 19 à 21 UTC au 20 à 21 UTC
Vent 5 kt de direction variable
Visibilité 10 km ou plus
pas de nuages en-dessous de 1500 mètres et pas de cumulonimbus.
Probabilité 30% :
Temporairement
du 20 à 02 UTC au 20 à 06 UTC
Visibilité: 3000 m
brume
Temporairement
du 20 à 12 UTC au 20 à 18 UTC
Vent 10 kt de nord-est

TAF: LEAS 192000Z 1921/2021 VRB05KT CAVOK TX18/2012Z TN09/2005Z PROB30 TEMPO 2002/2006 3000 BR TEMPO 2012/2018 04010KT

Observations et prévisions météorologiques de plus de 4000 aéroports (messages METAR et TAF).

Les stations disponibles sont représentées par des disques jaunes et rouges sur la carte.

Passer la souris dessus pour voir le nom de la station.

Cliquer dessus pour voir les observations et prévisions météorologiques.

Pour changer de carte: cliquez sur les boutons verts avec une croix noire pour zoomer, sur le bouton vert avec un tiret pour effectuer un zoom arrière, ou sur les flèches vertes pour les cartes adjacentes.


METAR-TAF: